sensor_id;sensor_type;location;lat;lon;timestamp;P1;durP1;ratioP1;P2;durP2;ratioP2
63016;SDS011;50274;45.640;11.756;2024-03-06T00:02:25;6.10;;;1.90;;
63016;SDS011;50274;45.640;11.756;2024-03-06T00:04:51;7.15;;;1.80;;
63016;SDS011;50274;45.640;11.756;2024-03-06T00:07:17;8.53;;;2.23;;
63016;SDS011;50274;45.640;11.756;2024-03-06T00:09:43;7.30;;;2.13;;
63016;SDS011;50274;45.640;11.756;2024-03-06T00:12:09;9.30;;;2.17;;
63016;SDS011;50274;45.640;11.756;2024-03-06T00:14:35;8.13;;;2.30;;
63016;SDS011;50274;45.640;11.756;2024-03-06T00:17:01;5.80;;;2.00;;
63016;SDS011;50274;45.640;11.756;2024-03-06T00:19:29;6.97;;;2.47;;
63016;SDS011;50274;45.640;11.756;2024-03-06T00:21:55;8.45;;;2.38;;
63016;SDS011;50274;45.640;11.756;2024-03-06T00:24:21;8.52;;;1.95;;
63016;SDS011;50274;45.640;11.756;2024-03-06T00:26:48;8.03;;;2.23;;
63016;SDS011;50274;45.640;11.756;2024-03-06T00:29:14;6.57;;;2.28;;
63016;SDS011;50274;45.640;11.756;2024-03-06T00:31:43;12.90;;;2.50;;
63016;SDS011;50274;45.640;11.756;2024-03-06T00:34:10;9.55;;;2.38;;
63016;SDS011;50274;45.640;11.756;2024-03-06T00:36:40;8.43;;;2.27;;
63016;SDS011;50274;45.640;11.756;2024-03-06T00:39:06;10.15;;;2.22;;
63016;SDS011;50274;45.640;11.756;2024-03-06T00:41:33;10.07;;;2.63;;
63016;SDS011;50274;45.640;11.756;2024-03-06T00:44:00;8.20;;;2.78;;
63016;SDS011;50274;45.640;11.756;2024-03-06T00:46:25;9.13;;;2.57;;
63016;SDS011;50274;45.640;11.756;2024-03-06T00:48:51;7.63;;;2.50;;
63016;SDS011;50274;45.640;11.756;2024-03-06T00:51:17;8.55;;;2.75;;
63016;SDS011;50274;45.640;11.756;2024-03-06T00:53:44;7.00;;;2.17;;
63016;SDS011;50274;45.640;11.756;2024-03-06T00:56:10;13.73;;;2.58;;
63016;SDS011;50274;45.640;11.756;2024-03-06T00:58:35;6.97;;;2.22;;
63016;SDS011;50274;45.640;11.756;2024-03-06T01:01:01;7.80;;;1.93;;
63016;SDS011;50274;45.640;11.756;2024-03-06T01:03:27;9.67;;;2.10;;
63016;SDS011;50274;45.640;11.756;2024-03-06T01:05:53;9.18;;;1.95;;
63016;SDS011;50274;45.640;11.756;2024-03-06T01:08:21;9.05;;;2.00;;
63016;SDS011;50274;45.640;11.756;2024-03-06T01:10:47;5.32;;;1.70;;
63016;SDS011;50274;45.640;11.756;2024-03-06T01:13:13;7.50;;;1.70;;
63016;SDS011;50274;45.640;11.756;2024-03-06T01:15:39;8.00;;;1.80;;
63016;SDS011;50274;45.640;11.756;2024-03-06T01:18:05;9.13;;;1.70;;
63016;SDS011;50274;45.640;11.756;2024-03-06T01:20:30;7.03;;;1.60;;
63016;SDS011;50274;45.640;11.756;2024-03-06T01:22:56;8.55;;;2.00;;
63016;SDS011;50274;45.640;11.756;2024-03-06T01:25:22;8.20;;;1.70;;
63016;SDS011;50274;45.640;11.756;2024-03-06T01:27:48;9.07;;;1.88;;
63016;SDS011;50274;45.640;11.756;2024-03-06T01:30:14;4.55;;;1.33;;
63016;SDS011;50274;45.640;11.756;2024-03-06T01:32:40;4.10;;;1.10;;
63016;SDS011;50274;45.640;11.756;2024-03-06T01:35:06;7.07;;;1.65;;
63016;SDS011;50274;45.640;11.756;2024-03-06T01:37:32;5.93;;;1.75;;
63016;SDS011;50274;45.640;11.756;2024-03-06T01:39:58;7.07;;;1.42;;
63016;SDS011;50274;45.640;11.756;2024-03-06T01:42:24;7.77;;;1.80;;
63016;SDS011;50274;45.640;11.756;2024-03-06T01:44:50;4.82;;;1.45;;
63016;SDS011;50274;45.640;11.756;2024-03-06T01:47:16;10.60;;;1.77;;
63016;SDS011;50274;45.640;11.756;2024-03-06T01:49:42;6.73;;;1.47;;
63016;SDS011;50274;45.640;11.756;2024-03-06T01:52:09;8.48;;;1.60;;
63016;SDS011;50274;45.640;11.756;2024-03-06T01:54:38;9.57;;;1.90;;
63016;SDS011;50274;45.640;11.756;2024-03-06T01:57:04;7.15;;;1.80;;
63016;SDS011;50274;45.640;11.756;2024-03-06T01:59:33;5.63;;;1.80;;
63016;SDS011;50274;45.640;11.756;2024-03-06T02:01:59;5.32;;;1.48;;
63016;SDS011;50274;45.640;11.756;2024-03-06T02:04:29;6.25;;;1.90;;
63016;SDS011;50274;45.640;11.756;2024-03-06T02:06:55;9.60;;;1.70;;
63016;SDS011;50274;45.640;11.756;2024-03-06T02:09:22;7.97;;;1.65;;
63016;SDS011;50274;45.640;11.756;2024-03-06T02:11:48;5.93;;;1.57;;
63016;SDS011;50274;45.640;11.756;2024-03-06T02:14:15;9.10;;;2.10;;
63016;SDS011;50274;45.640;11.756;2024-03-06T02:16:41;5.85;;;1.70;;
63016;SDS011;50274;45.640;11.756;2024-03-06T02:19:07;5.47;;;1.60;;
63016;SDS011;50274;45.640;11.756;2024-03-06T02:21:33;9.07;;;3.20;;
63016;SDS011;50274;45.640;11.756;2024-03-06T02:24:00;8.70;;;1.80;;
63016;SDS011;50274;45.640;11.756;2024-03-06T02:26:26;7.57;;;1.88;;
63016;SDS011;50274;45.640;11.756;2024-03-06T02:28:54;9.35;;;2.00;;
63016;SDS011;50274;45.640;11.756;2024-03-06T02:31:20;8.40;;;2.10;;
63016;SDS011;50274;45.640;11.756;2024-03-06T02:33:47;7.63;;;1.83;;
63016;SDS011;50274;45.640;11.756;2024-03-06T02:36:13;9.23;;;2.08;;
63016;SDS011;50274;45.640;11.756;2024-03-06T02:38:40;8.25;;;1.77;;
63016;SDS011;50274;45.640;11.756;2024-03-06T02:41:06;7.90;;;1.67;;
63016;SDS011;50274;45.640;11.756;2024-03-06T02:43:33;10.63;;;1.97;;
63016;SDS011;50274;45.640;11.756;2024-03-06T02:45:59;10.40;;;1.98;;
63016;SDS011;50274;45.640;11.756;2024-03-06T02:48:25;7.32;;;1.98;;
63016;SDS011;50274;45.640;11.756;2024-03-06T02:50:51;7.60;;;1.73;;
63016;SDS011;50274;45.640;11.756;2024-03-06T02:53:17;10.57;;;2.03;;
63016;SDS011;50274;45.640;11.756;2024-03-06T02:55:42;11.60;;;2.05;;
63016;SDS011;50274;45.640;11.756;2024-03-06T02:58:08;8.70;;;2.10;;
63016;SDS011;50274;45.640;11.756;2024-03-06T03:00:34;9.02;;;2.28;;
63016;SDS011;50274;45.640;11.756;2024-03-06T03:03:00;8.15;;;1.88;;
63016;SDS011;50274;45.640;11.756;2024-03-06T03:05:26;8.73;;;2.13;;
63016;SDS011;50274;45.640;11.756;2024-03-06T03:07:51;5.55;;;2.20;;
63016;SDS011;50274;45.640;11.756;2024-03-06T03:10:18;12.10;;;2.60;;
63016;SDS011;50274;45.640;11.756;2024-03-06T03:12:45;9.03;;;2.33;;
63016;SDS011;50274;45.640;11.756;2024-03-06T03:15:11;7.75;;;2.15;;
63016;SDS011;50274;45.640;11.756;2024-03-06T03:17:36;7.55;;;2.63;;
63016;SDS011;50274;45.640;11.756;2024-03-06T03:20:02;9.27;;;2.60;;
63016;SDS011;50274;45.640;11.756;2024-03-06T03:22:40;9.30;;;2.35;;
63016;SDS011;50274;45.640;11.756;2024-03-06T03:25:07;11.23;;;3.00;;
63016;SDS011;50274;45.640;11.756;2024-03-06T03:27:34;10.63;;;2.30;;
63016;SDS011;50274;45.640;11.756;2024-03-06T03:30:01;10.48;;;2.60;;
63016;SDS011;50274;45.640;11.756;2024-03-06T03:32:27;9.43;;;2.37;;
63016;SDS011;50274;45.640;11.756;2024-03-06T03:34:53;8.82;;;2.47;;
63016;SDS011;50274;45.640;11.756;2024-03-06T03:37:19;8.93;;;2.60;;
63016;SDS011;50274;45.640;11.756;2024-03-06T03:39:44;10.73;;;2.80;;
63016;SDS011;50274;45.640;11.756;2024-03-06T03:42:11;6.80;;;2.60;;
63016;SDS011;50274;45.640;11.756;2024-03-06T03:44:36;10.18;;;2.45;;
63016;SDS011;50274;45.640;11.756;2024-03-06T03:47:02;10.70;;;2.70;;
63016;SDS011;50274;45.640;11.756;2024-03-06T03:49:28;7.35;;;2.33;;
63016;SDS011;50274;45.640;11.756;2024-03-06T03:51:54;9.70;;;2.70;;
63016;SDS011;50274;45.640;11.756;2024-03-06T03:54:20;9.13;;;2.40;;
63016;SDS011;50274;45.640;11.756;2024-03-06T03:56:45;8.43;;;2.78;;
63016;SDS011;50274;45.640;11.756;2024-03-06T03:59:11;10.67;;;2.30;;
63016;SDS011;50274;45.640;11.756;2024-03-06T04:01:37;8.30;;;2.25;;
63016;SDS011;50274;45.640;11.756;2024-03-06T04:04:03;5.60;;;2.03;;
63016;SDS011;50274;45.640;11.756;2024-03-06T04:06:29;8.67;;;2.20;;
63016;SDS011;50274;45.640;11.756;2024-03-06T04:08:55;6.47;;;2.28;;
63016;SDS011;50274;45.640;11.756;2024-03-06T04:11:21;8.48;;;2.67;;
63016;SDS011;50274;45.640;11.756;2024-03-06T04:13:47;7.00;;;2.10;;
63016;SDS011;50274;45.640;11.756;2024-03-06T04:16:18;8.60;;;2.60;;
63016;SDS011;50274;45.640;11.756;2024-03-06T04:18:44;9.32;;;2.17;;
63016;SDS011;50274;45.640;11.756;2024-03-06T04:21:11;7.90;;;2.33;;
63016;SDS011;50274;45.640;11.756;2024-03-06T04:23:39;9.40;;;2.40;;
63016;SDS011;50274;45.640;11.756;2024-03-06T04:26:05;8.55;;;2.55;;
63016;SDS011;50274;45.640;11.756;2024-03-06T04:28:31;7.83;;;2.40;;
63016;SDS011;50274;45.640;11.756;2024-03-06T04:30:57;8.33;;;2.77;;
63016;SDS011;50274;45.640;11.756;2024-03-06T04:33:23;12.32;;;3.08;;
63016;SDS011;50274;45.640;11.756;2024-03-06T04:35:48;7.95;;;2.50;;
63016;SDS011;50274;45.640;11.756;2024-03-06T04:38:14;11.37;;;2.90;;
63016;SDS011;50274;45.640;11.756;2024-03-06T04:40:40;10.93;;;2.80;;
63016;SDS011;50274;45.640;11.756;2024-03-06T04:43:06;9.13;;;2.65;;
63016;SDS011;50274;45.640;11.756;2024-03-06T04:45:32;11.27;;;2.88;;
63016;SDS011;50274;45.640;11.756;2024-03-06T04:47:58;8.77;;;2.93;;
63016;SDS011;50274;45.640;11.756;2024-03-06T04:50:24;9.75;;;3.38;;
63016;SDS011;50274;45.640;11.756;2024-03-06T04:52:50;8.00;;;2.92;;
63016;SDS011;50274;45.640;11.756;2024-03-06T04:55:16;9.77;;;3.40;;
63016;SDS011;50274;45.640;11.756;2024-03-06T04:57:47;8.98;;;3.08;;
63016;SDS011;50274;45.640;11.756;2024-03-06T05:00:13;9.68;;;3.28;;
63016;SDS011;50274;45.640;11.756;2024-03-06T05:02:39;12.68;;;3.25;;
63016;SDS011;50274;45.640;11.756;2024-03-06T05:05:09;12.48;;;4.00;;
63016;SDS011;50274;45.640;11.756;2024-03-06T05:07:35;9.57;;;4.07;;
63016;SDS011;50274;45.640;11.756;2024-03-06T05:10:01;9.90;;;3.80;;
63016;SDS011;50274;45.640;11.756;2024-03-06T05:12:27;10.50;;;3.60;;
63016;SDS011;50274;45.640;11.756;2024-03-06T05:14:53;11.77;;;3.28;;
63016;SDS011;50274;45.640;11.756;2024-03-06T05:17:20;11.50;;;4.07;;
63016;SDS011;50274;45.640;11.756;2024-03-06T05:19:46;10.25;;;3.53;;
63016;SDS011;50274;45.640;11.756;2024-03-06T05:22:14;14.05;;;4.47;;
63016;SDS011;50274;45.640;11.756;2024-03-06T05:24:40;9.20;;;4.13;;
63016;SDS011;50274;45.640;11.756;2024-03-06T05:27:09;14.02;;;4.18;;
63016;SDS011;50274;45.640;11.756;2024-03-06T05:29:38;12.80;;;4.20;;
63016;SDS011;50274;45.640;11.756;2024-03-06T05:32:04;11.43;;;4.65;;
63016;SDS011;50274;45.640;11.756;2024-03-06T05:34:32;12.32;;;4.13;;
63016;SDS011;50274;45.640;11.756;2024-03-06T05:36:59;15.32;;;4.90;;
63016;SDS011;50274;45.640;11.756;2024-03-06T05:39:26;13.90;;;5.00;;
63016;SDS011;50274;45.640;11.756;2024-03-06T05:41:55;11.33;;;4.77;;
63016;SDS011;50274;45.640;11.756;2024-03-06T05:44:25;13.40;;;4.45;;
63016;SDS011;50274;45.640;11.756;2024-03-06T05:46:51;14.52;;;4.50;;
63016;SDS011;50274;45.640;11.756;2024-03-06T05:49:17;12.15;;;4.55;;
63016;SDS011;50274;45.640;11.756;2024-03-06T05:51:43;13.13;;;5.00;;
63016;SDS011;50274;45.640;11.756;2024-03-06T05:54:10;11.63;;;5.05;;
63016;SDS011;50274;45.640;11.756;2024-03-06T05:56:36;12.23;;;5.07;;
63016;SDS011;50274;45.640;11.756;2024-03-06T05:59:04;11.27;;;4.82;;
63016;SDS011;50274;45.640;11.756;2024-03-06T06:01:33;9.03;;;4.53;;
63016;SDS011;50274;45.640;11.756;2024-03-06T06:04:00;13.55;;;5.75;;
63016;SDS011;50274;45.640;11.756;2024-03-06T06:06:26;11.88;;;5.15;;
63016;SDS011;50274;45.640;11.756;2024-03-06T06:08:53;13.95;;;5.35;;
63016;SDS011;50274;45.640;11.756;2024-03-06T06:11:19;14.23;;;5.47;;
63016;SDS011;50274;45.640;11.756;2024-03-06T06:13:45;13.30;;;5.73;;
63016;SDS011;50274;45.640;11.756;2024-03-06T06:16:11;9.82;;;4.93;;
63016;SDS011;50274;45.640;11.756;2024-03-06T06:18:39;14.88;;;5.10;;
63016;SDS011;50274;45.640;11.756;2024-03-06T06:21:07;13.95;;;5.22;;
63016;SDS011;50274;45.640;11.756;2024-03-06T06:23:33;15.17;;;5.47;;
63016;SDS011;50274;45.640;11.756;2024-03-06T06:25:59;11.70;;;5.15;;
63016;SDS011;50274;45.640;11.756;2024-03-06T06:28:25;11.93;;;5.03;;
63016;SDS011;50274;45.640;11.756;2024-03-06T06:30:51;14.95;;;5.22;;
63016;SDS011;50274;45.640;11.756;2024-03-06T06:33:20;14.40;;;5.17;;
63016;SDS011;50274;45.640;11.756;2024-03-06T06:35:46;11.13;;;5.05;;
63016;SDS011;50274;45.640;11.756;2024-03-06T06:38:12;13.32;;;5.13;;
63016;SDS011;50274;45.640;11.756;2024-03-06T06:40:38;11.82;;;4.57;;
63016;SDS011;50274;45.640;11.756;2024-03-06T06:43:05;9.73;;;5.22;;
63016;SDS011;50274;45.640;11.756;2024-03-06T06:45:31;11.27;;;4.90;;
63016;SDS011;50274;45.640;11.756;2024-03-06T06:47:57;12.88;;;5.18;;
63016;SDS011;50274;45.640;11.756;2024-03-06T06:50:23;15.23;;;5.13;;
63016;SDS011;50274;45.640;11.756;2024-03-06T06:52:51;12.32;;;5.15;;
63016;SDS011;50274;45.640;11.756;2024-03-06T06:55:17;10.27;;;5.13;;
63016;SDS011;50274;45.640;11.756;2024-03-06T06:57:45;12.80;;;5.45;;
63016;SDS011;50274;45.640;11.756;2024-03-06T07:00:11;11.30;;;5.30;;
63016;SDS011;50274;45.640;11.756;2024-03-06T07:02:37;13.13;;;5.55;;
63016;SDS011;50274;45.640;11.756;2024-03-06T07:05:04;12.52;;;5.35;;
63016;SDS011;50274;45.640;11.756;2024-03-06T07:07:31;10.30;;;4.80;;
63016;SDS011;50274;45.640;11.756;2024-03-06T07:09:56;13.10;;;5.20;;
63016;SDS011;50274;45.640;11.756;2024-03-06T07:12:24;10.25;;;4.50;;
63016;SDS011;50274;45.640;11.756;2024-03-06T07:14:51;9.52;;;4.45;;
63016;SDS011;50274;45.640;11.756;2024-03-06T07:17:17;13.70;;;5.28;;
63016;SDS011;50274;45.640;11.756;2024-03-06T07:19:43;9.10;;;4.30;;
63016;SDS011;50274;45.640;11.756;2024-03-06T07:22:08;10.02;;;4.65;;
63016;SDS011;50274;45.640;11.756;2024-03-06T07:24:34;10.43;;;4.25;;
63016;SDS011;50274;45.640;11.756;2024-03-06T07:27:02;10.97;;;4.13;;
63016;SDS011;50274;45.640;11.756;2024-03-06T07:29:28;10.80;;;4.03;;
63016;SDS011;50274;45.640;11.756;2024-03-06T07:31:54;9.82;;;3.90;;
63016;SDS011;50274;45.640;11.756;2024-03-06T07:34:20;13.93;;;4.47;;
63016;SDS011;50274;45.640;11.756;2024-03-06T07:36:46;10.57;;;3.60;;
63016;SDS011;50274;45.640;11.756;2024-03-06T07:39:15;8.63;;;3.25;;
63016;SDS011;50274;45.640;11.756;2024-03-06T07:41:41;10.38;;;3.67;;
63016;SDS011;50274;45.640;11.756;2024-03-06T07:44:07;10.63;;;3.35;;
63016;SDS011;50274;45.640;11.756;2024-03-06T07:46:36;13.97;;;3.80;;
63016;SDS011;50274;45.640;11.756;2024-03-06T07:49:02;11.70;;;3.70;;
63016;SDS011;50274;45.640;11.756;2024-03-06T07:51:30;10.02;;;3.42;;
63016;SDS011;50274;45.640;11.756;2024-03-06T07:53:56;9.65;;;3.53;;
63016;SDS011;50274;45.640;11.756;2024-03-06T07:56:22;7.30;;;3.07;;
63016;SDS011;50274;45.640;11.756;2024-03-06T07:58:51;8.75;;;2.60;;
63016;SDS011;50274;45.640;11.756;2024-03-06T08:01:18;10.98;;;3.58;;
63016;SDS011;50274;45.640;11.756;2024-03-06T08:03:45;10.63;;;3.20;;
63016;SDS011;50274;45.640;11.756;2024-03-06T08:06:12;8.07;;;3.25;;
63016;SDS011;50274;45.640;11.756;2024-03-06T08:08:43;9.43;;;3.23;;
63016;SDS011;50274;45.640;11.756;2024-03-06T08:11:10;7.45;;;2.85;;
63016;SDS011;50274;45.640;11.756;2024-03-06T08:13:37;9.82;;;3.05;;
63016;SDS011;50274;45.640;11.756;2024-03-06T08:16:03;10.20;;;2.83;;
63016;SDS011;50274;45.640;11.756;2024-03-06T08:18:30;8.80;;;2.78;;
63016;SDS011;50274;45.640;11.756;2024-03-06T08:20:56;11.20;;;2.63;;
63016;SDS011;50274;45.640;11.756;2024-03-06T08:23:22;6.60;;;2.40;;
63016;SDS011;50274;45.640;11.756;2024-03-06T08:25:49;8.98;;;2.70;;
63016;SDS011;50274;45.640;11.756;2024-03-06T08:28:14;7.00;;;2.30;;
63016;SDS011;50274;45.640;11.756;2024-03-06T08:30:40;8.37;;;2.40;;
63016;SDS011;50274;45.640;11.756;2024-03-06T08:33:06;10.02;;;2.90;;
63016;SDS011;50274;45.640;11.756;2024-03-06T08:35:32;8.43;;;2.80;;
63016;SDS011;50274;45.640;11.756;2024-03-06T08:37:59;8.57;;;2.30;;
63016;SDS011;50274;45.640;11.756;2024-03-06T08:40:25;7.72;;;2.65;;
63016;SDS011;50274;45.640;11.756;2024-03-06T08:42:53;6.78;;;2.40;;
63016;SDS011;50274;45.640;11.756;2024-03-06T08:45:19;7.10;;;2.45;;
63016;SDS011;50274;45.640;11.756;2024-03-06T08:47:45;8.63;;;2.72;;
63016;SDS011;50274;45.640;11.756;2024-03-06T08:50:12;7.43;;;2.40;;
63016;SDS011;50274;45.640;11.756;2024-03-06T08:52:38;8.98;;;2.38;;
63016;SDS011;50274;45.640;11.756;2024-03-06T08:55:06;7.72;;;2.30;;
63016;SDS011;50274;45.640;11.756;2024-03-06T08:57:32;7.78;;;1.98;;
63016;SDS011;50274;45.640;11.756;2024-03-06T08:59:59;7.35;;;1.90;;
63016;SDS011;50274;45.640;11.756;2024-03-06T09:02:25;8.43;;;2.20;;
63016;SDS011;50274;45.640;11.756;2024-03-06T09:04:51;9.93;;;2.30;;
63016;SDS011;50274;45.640;11.756;2024-03-06T09:07:17;9.55;;;2.60;;
63016;SDS011;50274;45.640;11.756;2024-03-06T09:09:43;7.00;;;2.42;;
63016;SDS011;50274;45.640;11.756;2024-03-06T09:12:10;11.02;;;3.47;;
63016;SDS011;50274;45.640;11.756;2024-03-06T09:14:36;7.40;;;2.30;;
63016;SDS011;50274;45.640;11.756;2024-03-06T09:17:03;6.68;;;2.15;;
63016;SDS011;50274;45.640;11.756;2024-03-06T09:19:30;9.45;;;2.10;;
63016;SDS011;50274;45.640;11.756;2024-03-06T09:21:56;8.82;;;2.55;;
63016;SDS011;50274;45.640;11.756;2024-03-06T09:24:22;6.10;;;2.37;;
63016;SDS011;50274;45.640;11.756;2024-03-06T09:26:49;8.10;;;2.50;;
63016;SDS011;50274;45.640;11.756;2024-03-06T09:29:16;7.97;;;2.40;;
63016;SDS011;50274;45.640;11.756;2024-03-06T09:31:42;8.60;;;2.72;;
63016;SDS011;50274;45.640;11.756;2024-03-06T09:34:08;8.20;;;2.65;;
63016;SDS011;50274;45.640;11.756;2024-03-06T09:36:47;9.00;;;2.70;;
63016;SDS011;50274;45.640;11.756;2024-03-06T09:39:17;8.90;;;2.58;;
63016;SDS011;50274;45.640;11.756;2024-03-06T09:41:50;7.07;;;2.28;;
63016;SDS011;50274;45.640;11.756;2024-03-06T09:44:16;8.35;;;2.70;;
63016;SDS011;50274;45.640;11.756;2024-03-06T09:46:46;9.45;;;2.65;;
63016;SDS011;50274;45.640;11.756;2024-03-06T09:49:15;11.00;;;3.43;;
63016;SDS011;50274;45.640;11.756;2024-03-06T09:51:45;7.28;;;2.30;;
63016;SDS011;50274;45.640;11.756;2024-03-06T09:54:13;8.23;;;2.25;;
63016;SDS011;50274;45.640;11.756;2024-03-06T09:56:44;7.60;;;2.70;;
63016;SDS011;50274;45.640;11.756;2024-03-06T09:59:14;10.43;;;2.90;;
63016;SDS011;50274;45.640;11.756;2024-03-06T10:01:45;12.47;;;3.70;;
63016;SDS011;50274;45.640;11.756;2024-03-06T10:04:25;7.85;;;3.17;;
63016;SDS011;50274;45.640;11.756;2024-03-06T10:06:59;11.00;;;3.60;;
63016;SDS011;50274;45.640;11.756;2024-03-06T10:09:25;9.77;;;3.25;;
63016;SDS011;50274;45.640;11.756;2024-03-06T10:11:52;8.20;;;3.22;;
63016;SDS011;50274;45.640;11.756;2024-03-06T10:14:19;7.27;;;3.03;;
63016;SDS011;50274;45.640;11.756;2024-03-06T10:16:56;10.10;;;3.83;;
63016;SDS011;50274;45.640;11.756;2024-03-06T10:19:27;9.88;;;3.50;;
63016;SDS011;50274;45.640;11.756;2024-03-06T10:21:54;9.60;;;3.95;;
63016;SDS011;50274;45.640;11.756;2024-03-06T10:24:25;12.00;;;4.75;;
63016;SDS011;50274;45.640;11.756;2024-03-06T10:26:54;11.10;;;3.77;;
63016;SDS011;50274;45.640;11.756;2024-03-06T10:29:23;11.75;;;3.70;;
63016;SDS011;50274;45.640;11.756;2024-03-06T10:31:57;10.05;;;4.43;;
63016;SDS011;50274;45.640;11.756;2024-03-06T10:34:24;9.93;;;4.63;;
63016;SDS011;50274;45.640;11.756;2024-03-06T10:36:54;10.40;;;4.50;;
63016;SDS011;50274;45.640;11.756;2024-03-06T10:39:21;9.93;;;4.60;;
63016;SDS011;50274;45.640;11.756;2024-03-06T10:41:57;11.50;;;4.55;;
63016;SDS011;50274;45.640;11.756;2024-03-06T10:44:23;10.52;;;3.92;;
63016;SDS011;50274;45.640;11.756;2024-03-06T10:46:55;10.40;;;4.13;;
63016;SDS011;50274;45.640;11.756;2024-03-06T10:49:26;7.50;;;3.70;;
63016;SDS011;50274;45.640;11.756;2024-03-06T10:52:02;10.60;;;3.27;;
63016;SDS011;50274;45.640;11.756;2024-03-06T10:54:32;15.15;;;3.80;;
63016;SDS011;50274;45.640;11.756;2024-03-06T10:57:06;7.40;;;3.17;;
63016;SDS011;50274;45.640;11.756;2024-03-06T10:59:35;7.90;;;3.20;;
63016;SDS011;50274;45.640;11.756;2024-03-06T11:02:01;8.07;;;3.13;;
63016;SDS011;50274;45.640;11.756;2024-03-06T11:04:28;7.30;;;3.65;;
63016;SDS011;50274;45.640;11.756;2024-03-06T11:06:59;9.43;;;3.38;;
63016;SDS011;50274;45.640;11.756;2024-03-06T11:09:34;8.40;;;2.90;;
63016;SDS011;50274;45.640;11.756;2024-03-06T11:12:01;8.90;;;2.92;;
63016;SDS011;50274;45.640;11.756;2024-03-06T11:14:30;8.17;;;2.60;;
63016;SDS011;50274;45.640;11.756;2024-03-06T11:17:09;7.07;;;3.10;;
63016;SDS011;50274;45.640;11.756;2024-03-06T11:20:20;8.55;;;3.30;;
63016;SDS011;50274;45.640;11.756;2024-03-06T11:28:15;9.00;;;2.63;;
63016;SDS011;50274;45.640;11.756;2024-03-06T11:30:55;7.20;;;2.80;;
63016;SDS011;50274;45.640;11.756;2024-03-06T11:33:39;7.80;;;3.10;;
63016;SDS011;50274;45.640;11.756;2024-03-06T11:41:28;7.30;;;2.90;;
63016;SDS011;50274;45.640;11.756;2024-03-06T11:43:57;7.47;;;2.10;;
63016;SDS011;50274;45.640;11.756;2024-03-06T11:46:43;9.88;;;2.53;;
63016;SDS011;50274;45.640;11.756;2024-03-06T11:49:16;5.95;;;2.22;;
63016;SDS011;50274;45.640;11.756;2024-03-06T11:51:46;7.22;;;2.42;;
63016;SDS011;50274;45.640;11.756;2024-03-06T11:54:12;7.07;;;2.40;;
63016;SDS011;50274;45.640;11.756;2024-03-06T11:56:39;29.52;;;4.15;;
63016;SDS011;50274;45.640;11.756;2024-03-06T11:59:06;10.38;;;2.40;;
63016;SDS011;50274;45.640;11.756;2024-03-06T12:01:37;6.28;;;2.33;;
63016;SDS011;50274;45.640;11.756;2024-03-06T12:04:03;9.02;;;2.42;;
63016;SDS011;50274;45.640;11.756;2024-03-06T12:06:30;8.13;;;1.90;;
63016;SDS011;50274;45.640;11.756;2024-03-06T12:08:57;6.22;;;1.98;;
63016;SDS011;50274;45.640;11.756;2024-03-06T12:11:23;6.97;;;2.17;;
63016;SDS011;50274;45.640;11.756;2024-03-06T12:13:53;7.68;;;2.13;;
63016;SDS011;50274;45.640;11.756;2024-03-06T12:16:20;6.57;;;2.70;;
63016;SDS011;50274;45.640;11.756;2024-03-06T12:18:46;7.57;;;2.30;;
63016;SDS011;50274;45.640;11.756;2024-03-06T12:21:19;9.32;;;2.40;;
63016;SDS011;50274;45.640;11.756;2024-03-06T12:23:45;6.93;;;2.90;;
63016;SDS011;50274;45.640;11.756;2024-03-06T12:26:11;7.97;;;2.78;;
63016;SDS011;50274;45.640;11.756;2024-03-06T12:28:37;8.43;;;2.30;;
63016;SDS011;50274;45.640;11.756;2024-03-06T12:31:04;8.75;;;2.63;;
63016;SDS011;50274;45.640;11.756;2024-03-06T12:33:32;9.27;;;2.50;;
63016;SDS011;50274;45.640;11.756;2024-03-06T12:36:08;6.10;;;2.00;;
63016;SDS011;50274;45.640;11.756;2024-03-06T12:38:37;6.53;;;2.30;;
63016;SDS011;50274;45.640;11.756;2024-03-06T12:41:04;6.65;;;2.13;;
63016;SDS011;50274;45.640;11.756;2024-03-06T12:43:31;8.75;;;2.50;;
63016;SDS011;50274;45.640;11.756;2024-03-06T12:45:58;6.47;;;2.30;;
63016;SDS011;50274;45.640;11.756;2024-03-06T12:48:24;8.10;;;2.87;;
63016;SDS011;50274;45.640;11.756;2024-03-06T12:50:51;6.60;;;2.60;;
63016;SDS011;50274;45.640;11.756;2024-03-06T12:53:19;7.10;;;2.55;;
63016;SDS011;50274;45.640;11.756;2024-03-06T12:55:45;8.48;;;2.75;;
63016;SDS011;50274;45.640;11.756;2024-03-06T12:58:11;6.83;;;3.00;;
63016;SDS011;50274;45.640;11.756;2024-03-06T13:00:38;8.25;;;2.70;;
63016;SDS011;50274;45.640;11.756;2024-03-06T13:03:04;8.57;;;3.40;;
63016;SDS011;50274;45.640;11.756;2024-03-06T13:05:30;7.95;;;3.50;;
63016;SDS011;50274;45.640;11.756;2024-03-06T13:07:56;10.53;;;3.33;;
63016;SDS011;50274;45.640;11.756;2024-03-06T13:10:24;8.30;;;3.15;;
63016;SDS011;50274;45.640;11.756;2024-03-06T13:12:50;10.90;;;4.00;;
63016;SDS011;50274;45.640;11.756;2024-03-06T13:15:16;7.78;;;3.47;;
63016;SDS011;50274;45.640;11.756;2024-03-06T13:17:43;8.55;;;4.00;;
63016;SDS011;50274;45.640;11.756;2024-03-06T13:20:09;9.17;;;3.70;;
63016;SDS011;50274;45.640;11.756;2024-03-06T13:22:37;17.25;;;3.38;;
63016;SDS011;50274;45.640;11.756;2024-03-06T13:25:03;10.15;;;3.17;;
63016;SDS011;50274;45.640;11.756;2024-03-06T13:27:30;8.90;;;3.20;;
63016;SDS011;50274;45.640;11.756;2024-03-06T13:29:56;8.83;;;2.93;;
63016;SDS011;50274;45.640;11.756;2024-03-06T13:32:22;7.65;;;3.33;;
63016;SDS011;50274;45.640;11.756;2024-03-06T13:34:48;8.95;;;3.00;;
63016;SDS011;50274;45.640;11.756;2024-03-06T13:37:14;7.18;;;2.42;;
63016;SDS011;50274;45.640;11.756;2024-03-06T13:39:41;6.83;;;2.60;;
63016;SDS011;50274;45.640;11.756;2024-03-06T13:42:07;10.05;;;3.00;;
63016;SDS011;50274;45.640;11.756;2024-03-06T13:44:34;9.20;;;2.70;;
63016;SDS011;50274;45.640;11.756;2024-03-06T13:47:00;8.50;;;2.78;;
63016;SDS011;50274;45.640;11.756;2024-03-06T13:49:37;10.55;;;2.80;;
63016;SDS011;50274;45.640;11.756;2024-03-06T13:52:04;9.67;;;2.60;;
63016;SDS011;50274;45.640;11.756;2024-03-06T13:54:32;6.47;;;2.63;;
63016;SDS011;50274;45.640;11.756;2024-03-06T13:57:02;6.25;;;2.03;;
63016;SDS011;50274;45.640;11.756;2024-03-06T13:59:30;6.38;;;2.15;;
63016;SDS011;50274;45.640;11.756;2024-03-06T14:01:56;7.57;;;2.40;;
63016;SDS011;50274;45.640;11.756;2024-03-06T14:04:24;8.13;;;2.38;;
63016;SDS011;50274;45.640;11.756;2024-03-06T14:06:50;7.75;;;2.75;;
63016;SDS011;50274;45.640;11.756;2024-03-06T14:09:16;6.45;;;1.98;;
63016;SDS011;50274;45.640;11.756;2024-03-06T14:11:41;7.13;;;2.60;;
63016;SDS011;50274;45.640;11.756;2024-03-06T14:14:07;6.43;;;2.67;;
63016;SDS011;50274;45.640;11.756;2024-03-06T14:16:34;7.22;;;2.50;;
63016;SDS011;50274;45.640;11.756;2024-03-06T14:19:02;7.07;;;2.47;;
63016;SDS011;50274;45.640;11.756;2024-03-06T14:21:29;9.48;;;2.80;;
63016;SDS011;50274;45.640;11.756;2024-03-06T14:23:57;12.67;;;2.70;;
63016;SDS011;50274;45.640;11.756;2024-03-06T14:26:27;9.23;;;2.70;;
63016;SDS011;50274;45.640;11.756;2024-03-06T14:28:53;8.65;;;2.80;;
63016;SDS011;50274;45.640;11.756;2024-03-06T14:31:23;6.22;;;2.55;;
63016;SDS011;50274;45.640;11.756;2024-03-06T14:33:50;6.07;;;2.38;;
63016;SDS011;50274;45.640;11.756;2024-03-06T14:36:23;7.13;;;2.40;;
63016;SDS011;50274;45.640;11.756;2024-03-06T14:38:52;7.32;;;2.60;;
63016;SDS011;50274;45.640;11.756;2024-03-06T14:41:18;5.53;;;2.42;;
63016;SDS011;50274;45.640;11.756;2024-03-06T14:43:45;8.57;;;2.10;;